Portada
METAR-TAF:

METAR-TAF

Aeropuertos :

Tabarka, Túnez

latitud: 36-57N, longitud: 008-45E, altitud: 20 m

Observación

El informe se hizo hace 1 hora y 10 minutos, a las 20:00 UTC
Viento 2 kt del sureste
Temperatura 9°C
Humedad 71%
Presión 1020 hPa
Visibilidad 10 km o más
Nubes dispersas a una altura de 2000 ft
Nubes dispersas a una altura de 3000 ft

METAR: DTKA 212000Z 13002KT 9999 SCT020 SCT030 09/04 Q1020 NOSIG

Hora: 22:10 (21:10 UTC)

Pronóstico

El informe se hizo hace 3 horas y 10 minutos, a las 18:00 UTC
Pronóstico válido del 21 a las 19 UTC al 22 a las 04 UTC
Viento 3 kt del oeste-suroeste
Visibilidad 10 km o más
Nubes dispersas a una altura de 2000 ft
Escasas nubes a una altura de 3000 ft

TAF: DTKA 211800Z 2119/2204 24003KT 9999 SCT020 FEW030

Observaciones y pronósticos meteorológicos de más de 4000 aeropuertos (mensajes METAR y TAF).

Los puntos amarillos y rojos representan las estaciones disponibles.

Ponga el ratón en el punto deseado para ver el nombre de la estación.

Haga clic para ver las observaciones y los pronósticos meteorológicos.

Para cambiar el mapa : haga clic en los botones verdes con una cruz de color negro para hacer un zoom, en el botón verde con un guión para alejar o en las flechas verdes para mapas adyacentes.


METAR-TAF: